sensor_id;sensor_type;location;lat;lon;timestamp;pressure;altitude;pressure_sealevel;temperature;humidity
3150;BME280;32503;47.748;8.960;2023-01-29T00:01:56;97785.72;;;2.54;63.13
3150;BME280;32503;47.748;8.960;2023-01-29T00:04:25;97779.31;;;2.50;63.45
3150;BME280;32503;47.748;8.960;2023-01-29T00:06:52;97777.72;;;2.49;63.05
3150;BME280;32503;47.748;8.960;2023-01-29T00:09:19;97788.94;;;2.51;63.27
3150;BME280;32503;47.748;8.960;2023-01-29T00:11:46;97787.88;;;2.47;63.56
3150;BME280;32503;47.748;8.960;2023-01-29T00:14:13;97783.31;;;2.53;63.21
3150;BME280;32503;47.748;8.960;2023-01-29T00:16:41;97761.78;;;2.39;62.42
3150;BME280;32503;47.748;8.960;2023-01-29T00:19:08;97772.41;;;2.49;62.60
3150;BME280;32503;47.748;8.960;2023-01-29T00:21:36;97768.88;;;2.54;62.69
3150;BME280;32503;47.748;8.960;2023-01-29T00:24:04;97773.72;;;2.46;62.92
3150;BME280;32503;47.748;8.960;2023-01-29T00:26:31;97786.03;;;2.47;62.90
3150;BME280;32503;47.748;8.960;2023-01-29T00:28:58;97778.25;;;2.51;62.45
3150;BME280;32503;47.748;8.960;2023-01-29T00:31:26;97776.63;;;2.50;62.37
3150;BME280;32503;47.748;8.960;2023-01-29T00:33:54;97759.31;;;2.47;62.49
3150;BME280;32503;47.748;8.960;2023-01-29T00:36:21;97760.34;;;2.52;62.63
3150;BME280;32503;47.748;8.960;2023-01-29T00:38:55;97761.09;;;2.57;62.14
3150;BME280;32503;47.748;8.960;2023-01-29T00:41:26;97759.47;;;2.61;62.24
3150;BME280;32503;47.748;8.960;2023-01-29T00:44:11;97761.63;;;2.59;62.17
3150;BME280;32503;47.748;8.960;2023-01-29T00:46:55;97762.16;;;2.61;62.00
3150;BME280;32503;47.748;8.960;2023-01-29T00:49:22;97760.03;;;2.58;61.96
3150;BME280;32503;47.748;8.960;2023-01-29T00:51:49;97755.72;;;2.62;62.28
3150;BME280;32503;47.748;8.960;2023-01-29T00:54:32;97727.59;;;2.41;61.82
3150;BME280;32503;47.748;8.960;2023-01-29T00:56:59;97777.56;;;2.70;61.56
3150;BME280;32503;47.748;8.960;2023-01-29T00:59:26;97778.03;;;2.77;61.54
3150;BME280;32503;47.748;8.960;2023-01-29T01:01:53;97780.13;;;2.80;61.47
3150;BME280;32503;47.748;8.960;2023-01-29T01:04:38;97788.44;;;2.78;61.51
3150;BME280;32503;47.748;8.960;2023-01-29T01:07:05;97787.03;;;2.86;61.64
3150;BME280;32503;47.748;8.960;2023-01-29T01:09:35;97785.44;;;2.85;60.92
3150;BME280;32503;47.748;8.960;2023-01-29T01:12:20;97788.63;;;2.87;61.36
3150;BME280;32503;47.748;8.960;2023-01-29T01:14:48;97795.81;;;2.92;61.16
3150;BME280;32503;47.748;8.960;2023-01-29T01:17:15;97804.09;;;2.90;61.13
3150;BME280;32503;47.748;8.960;2023-01-29T01:19:42;97799.78;;;2.94;60.99
3150;BME280;32503;47.748;8.960;2023-01-29T01:22:09;97794.44;;;2.94;61.04
3150;BME280;32503;47.748;8.960;2023-01-29T01:24:38;97807.28;;;2.92;61.53
3150;BME280;32503;47.748;8.960;2023-01-29T01:27:05;97791.00;;;2.89;61.19
3150;BME280;32503;47.748;8.960;2023-01-29T01:29:32;97785.66;;;2.89;61.66
3150;BME280;32503;47.748;8.960;2023-01-29T01:32:00;97791.81;;;2.89;61.22
3150;BME280;32503;47.748;8.960;2023-01-29T01:34:27;97802.75;;;2.88;61.63
3150;BME280;32503;47.748;8.960;2023-01-29T01:36:55;97793.41;;;2.90;61.49
3150;BME280;32503;47.748;8.960;2023-01-29T01:39:22;97780.06;;;2.90;61.40
3150;BME280;32503;47.748;8.960;2023-01-29T01:41:51;97790.97;;;2.94;61.21
3150;BME280;32503;47.748;8.960;2023-01-29T01:44:57;97800.75;;;3.03;61.82
3150;BME280;32503;47.748;8.960;2023-01-29T01:47:33;97802.06;;;3.06;60.93
3150;BME280;32503;47.748;8.960;2023-01-29T01:50:06;97794.16;;;2.96;61.03
3150;BME280;32503;47.748;8.960;2023-01-29T01:52:38;97800.47;;;3.05;61.04
3150;BME280;32503;47.748;8.960;2023-01-29T01:55:08;97799.91;;;3.08;60.63
3150;BME280;32503;47.748;8.960;2023-01-29T01:57:41;97812.47;;;3.08;60.77
3150;BME280;32503;47.748;8.960;2023-01-29T02:00:13;97805.03;;;3.04;61.00
3150;BME280;32503;47.748;8.960;2023-01-29T02:02:43;97785.91;;;2.92;61.07
3150;BME280;32503;47.748;8.960;2023-01-29T02:05:30;97794.63;;;3.03;61.13
3150;BME280;32503;47.748;8.960;2023-01-29T02:08:25;97786.13;;;2.96;60.80
3150;BME280;32503;47.748;8.960;2023-01-29T02:11:12;97799.97;;;3.03;61.45
3150;BME280;32503;47.748;8.960;2023-01-29T02:13:41;97809.81;;;3.08;61.09
3150;BME280;32503;47.748;8.960;2023-01-29T02:16:08;97802.06;;;3.06;61.11
3150;BME280;32503;47.748;8.960;2023-01-29T02:18:35;97794.63;;;3.03;61.10
3150;BME280;32503;47.748;8.960;2023-01-29T02:21:35;97791.94;;;3.03;61.62
3150;BME280;32503;47.748;8.960;2023-01-29T02:28:18;97799.03;;;3.18;61.01
3150;BME280;32503;47.748;8.960;2023-01-29T02:30:56;97803.41;;;3.03;60.86
3150;BME280;32503;47.748;8.960;2023-01-29T02:33:35;97797.56;;;3.01;61.33
3150;BME280;32503;47.748;8.960;2023-01-29T02:36:16;97793.31;;;3.00;61.39
3150;BME280;32503;47.748;8.960;2023-01-29T02:38:52;97801.56;;;3.04;61.59
3150;BME280;32503;47.748;8.960;2023-01-29T02:41:27;97776.34;;;2.86;61.51
3150;BME280;32503;47.748;8.960;2023-01-29T02:44:04;97785.66;;;2.89;61.81
3150;BME280;32503;47.748;8.960;2023-01-29T02:46:37;97794.09;;;3.01;61.58
3150;BME280;32503;47.748;8.960;2023-01-29T02:49:12;97796.31;;;2.94;61.75
3150;BME280;32503;47.748;8.960;2023-01-29T02:51:48;97780.66;;;2.82;61.89
3150;BME280;32503;47.748;8.960;2023-01-29T02:54:23;97800.28;;;2.96;61.90
3150;BME280;32503;47.748;8.960;2023-01-29T02:56:57;97796.31;;;2.94;62.65
3150;BME280;32503;47.748;8.960;2023-01-29T02:59:32;97804.00;;;3.00;62.14
3150;BME280;32503;47.748;8.960;2023-01-29T03:02:05;97781.16;;;2.84;62.15
3150;BME280;32503;47.748;8.960;2023-01-29T03:04:41;97796.25;;;2.99;61.68
3150;BME280;32503;47.748;8.960;2023-01-29T03:07:16;97798.94;;;2.99;61.83
3150;BME280;32503;47.748;8.960;2023-01-29T03:10:12;97787.50;;;2.93;61.92
3150;BME280;32503;47.748;8.960;2023-01-29T03:12:43;97780.31;;;2.89;62.04
3150;BME280;32503;47.748;8.960;2023-01-29T03:15:19;97781.97;;;2.84;62.28
3150;BME280;32503;47.748;8.960;2023-01-29T03:17:56;97793.31;;;3.00;62.30
3150;BME280;32503;47.748;8.960;2023-01-29T03:20:31;97797.06;;;2.99;62.57
3150;BME280;32503;47.748;8.960;2023-01-29T03:23:04;97779.00;;;2.91;62.24
3150;BME280;32503;47.748;8.960;2023-01-29T03:25:34;97784.38;;;2.86;62.23
3150;BME280;32503;47.748;8.960;2023-01-29T03:28:20;97707.28;;;2.45;61.73
3150;BME280;32503;47.748;8.960;2023-01-29T03:31:10;97763.09;;;2.76;61.63
3150;BME280;32503;47.748;8.960;2023-01-29T03:34:00;97766.78;;;2.80;61.76
3150;BME280;32503;47.748;8.960;2023-01-29T03:36:34;97782.50;;;2.87;61.97
3150;BME280;32503;47.748;8.960;2023-01-29T03:39:04;97792.50;;;3.00;61.54
3150;BME280;32503;47.748;8.960;2023-01-29T03:41:34;97775.53;;;2.85;61.07
3150;BME280;32503;47.748;8.960;2023-01-29T03:44:12;97792.25;;;2.96;61.18
3150;BME280;32503;47.748;8.960;2023-01-29T03:46:49;97785.34;;;2.95;61.02
3150;BME280;32503;47.748;8.960;2023-01-29T03:49:26;97786.94;;;2.96;61.08
3150;BME280;32503;47.748;8.960;2023-01-29T03:52:03;97786.47;;;2.89;61.12
3150;BME280;32503;47.748;8.960;2023-01-29T03:54:41;97767.94;;;2.74;61.11
3150;BME280;32503;47.748;8.960;2023-01-29T03:57:16;97783.50;;;2.91;61.15
3150;BME280;32503;47.748;8.960;2023-01-29T03:59:54;97785.34;;;2.95;60.58
3150;BME280;32503;47.748;8.960;2023-01-29T04:02:29;97788.75;;;3.01;60.41
3150;BME280;32503;47.748;8.960;2023-01-29T04:05:03;97783.78;;;2.89;60.18
3150;BME280;32503;47.748;8.960;2023-01-29T04:07:32;97785.44;;;2.85;59.67
3150;BME280;32503;47.748;8.960;2023-01-29T04:10:06;97781.13;;;2.89;60.07
3150;BME280;32503;47.748;8.960;2023-01-29T04:12:39;97787.00;;;2.91;59.29
3150;BME280;32503;47.748;8.960;2023-01-29T04:15:12;97767.63;;;2.75;58.86
3150;BME280;32503;47.748;8.960;2023-01-29T04:17:46;97762.59;;;2.74;58.69
3150;BME280;32503;47.748;8.960;2023-01-29T04:20:15;97777.66;;;2.89;58.84
3150;BME280;32503;47.748;8.960;2023-01-29T04:22:46;97780.09;;;2.85;58.75
3150;BME280;32503;47.748;8.960;2023-01-29T04:25:16;97772.34;;;2.83;58.24
3150;BME280;32503;47.748;8.960;2023-01-29T04:27:59;97772.31;;;2.89;58.73
3150;BME280;32503;47.748;8.960;2023-01-29T04:30:40;97773.66;;;2.91;58.49
3150;BME280;32503;47.748;8.960;2023-01-29T04:33:28;97758.25;;;2.78;58.33
3150;BME280;32503;47.748;8.960;2023-01-29T04:36:20;97769.41;;;2.85;58.46
3150;BME280;32503;47.748;8.960;2023-01-29T04:39:03;97783.00;;;2.89;58.25
3150;BME280;32503;47.748;8.960;2023-01-29T04:41:37;97782.50;;;2.87;58.27
3150;BME280;32503;47.748;8.960;2023-01-29T04:44:17;97760.00;;;2.63;58.60
3150;BME280;32503;47.748;8.960;2023-01-29T04:46:51;97766.56;;;2.76;57.98
3150;BME280;32503;47.748;8.960;2023-01-29T04:49:32;97753.00;;;2.68;58.38
3150;BME280;32503;47.748;8.960;2023-01-29T04:52:07;97768.03;;;2.88;57.86
3150;BME280;32503;47.748;8.960;2023-01-29T04:54:51;97767.28;;;2.82;57.98
3150;BME280;32503;47.748;8.960;2023-01-29T04:57:25;97781.78;;;2.76;58.63
3150;BME280;32503;47.748;8.960;2023-01-29T04:59:59;97776.41;;;2.81;58.19
3150;BME280;32503;47.748;8.960;2023-01-29T05:02:30;97782.66;;;2.66;58.50
3150;BME280;32503;47.748;8.960;2023-01-29T05:05:00;97782.06;;;2.74;58.50
3150;BME280;32503;47.748;8.960;2023-01-29T05:07:32;97780.97;;;2.75;57.91
3150;BME280;32503;47.748;8.960;2023-01-29T05:10:02;97791.41;;;2.72;58.16
3150;BME280;32503;47.748;8.960;2023-01-29T05:12:30;97788.22;;;2.70;58.93
3150;BME280;32503;47.748;8.960;2023-01-29T05:15:02;97777.03;;;2.68;58.51
3150;BME280;32503;47.748;8.960;2023-01-29T05:17:30;97780.00;;;2.66;58.30
3150;BME280;32503;47.748;8.960;2023-01-29T05:19:57;97790.06;;;2.74;58.56
3150;BME280;32503;47.748;8.960;2023-01-29T05:22:26;97805.31;;;2.74;58.53
3150;BME280;32503;47.748;8.960;2023-01-29T05:24:53;97805.06;;;2.70;58.09
3150;BME280;32503;47.748;8.960;2023-01-29T05:27:25;97798.88;;;2.75;58.30
3150;BME280;32503;47.748;8.960;2023-01-29T05:30:12;97804.19;;;2.80;58.84
3150;BME280;32503;47.748;8.960;2023-01-29T05:32:39;97809.75;;;2.83;59.02
3150;BME280;32503;47.748;8.960;2023-01-29T05:35:07;97808.41;;;2.86;58.78
3150;BME280;32503;47.748;8.960;2023-01-29T05:37:35;97813.72;;;2.91;58.62
3150;BME280;32503;47.748;8.960;2023-01-29T05:40:03;97824.03;;;2.98;58.62
3150;BME280;32503;47.748;8.960;2023-01-29T05:42:34;97820.53;;;3.02;59.07
3150;BME280;32503;47.748;8.960;2023-01-29T05:45:01;97787.03;;;2.86;58.97
3150;BME280;32503;47.748;8.960;2023-01-29T05:47:28;97814.38;;;3.07;58.50
3150;BME280;32503;47.748;8.960;2023-01-29T05:49:55;97816.22;;;3.07;59.14
3150;BME280;32503;47.748;8.960;2023-01-29T05:52:22;97807.19;;;3.02;59.04
3150;BME280;32503;47.748;8.960;2023-01-29T05:54:50;97821.53;;;3.12;58.93
3150;BME280;32503;47.748;8.960;2023-01-29T05:57:17;97819.34;;;3.14;58.77
3150;BME280;32503;47.748;8.960;2023-01-29T05:59:44;97819.88;;;3.16;58.90
3150;BME280;32503;47.748;8.960;2023-01-29T06:02:11;97823.09;;;3.18;58.97
3150;BME280;32503;47.748;8.960;2023-01-29T06:04:38;97822.81;;;3.19;58.48
3150;BME280;32503;47.748;8.960;2023-01-29T06:07:05;97821.72;;;3.20;58.83
3150;BME280;32503;47.748;8.960;2023-01-29T06:09:32;97824.38;;;3.20;59.19
3150;BME280;32503;47.748;8.960;2023-01-29T06:12:01;97819.81;;;3.21;59.15
3150;BME280;32503;47.748;8.960;2023-01-29T06:14:28;97819.25;;;3.24;58.97
3150;BME280;32503;47.748;8.960;2023-01-29T06:16:55;97817.69;;;3.23;58.65
3150;BME280;32503;47.748;8.960;2023-01-29T06:19:22;97823.63;;;3.15;59.49
3150;BME280;32503;47.748;8.960;2023-01-29T06:21:49;97827.88;;;3.16;59.42
3150;BME280;32503;47.748;8.960;2023-01-29T06:24:16;97827.88;;;3.16;59.31
3150;BME280;32503;47.748;8.960;2023-01-29T06:26:43;97832.72;;;3.14;59.22
3150;BME280;32503;47.748;8.960;2023-01-29T06:29:11;97839.16;;;3.13;59.26
3150;BME280;32503;47.748;8.960;2023-01-29T06:31:38;97842.34;;;3.15;59.31
3150;BME280;32503;47.748;8.960;2023-01-29T06:34:06;97846.09;;;3.14;59.35
3150;BME280;32503;47.748;8.960;2023-01-29T06:36:33;97842.97;;;3.01;59.38
3150;BME280;32503;47.748;8.960;2023-01-29T06:39:00;97851.47;;;3.09;59.55
3150;BME280;32503;47.748;8.960;2023-01-29T06:41:27;97851.50;;;3.03;59.68
3150;BME280;32503;47.748;8.960;2023-01-29T06:43:54;97845.63;;;3.07;59.66
3150;BME280;32503;47.748;8.960;2023-01-29T06:46:23;97841.38;;;3.06;59.81
3150;BME280;32503;47.748;8.960;2023-01-29T06:48:50;97845.38;;;3.32;64.70
3150;BME280;32503;47.748;8.960;2023-01-29T06:51:17;97836.22;;;3.38;63.66
3150;BME280;32503;47.748;8.960;2023-01-29T06:53:46;97832.53;;;3.34;62.14
3150;BME280;32503;47.748;8.960;2023-01-29T06:56:13;97836.44;;;3.18;60.79
3150;BME280;32503;47.748;8.960;2023-01-29T06:58:40;97828.47;;;3.13;59.97
3150;BME280;32503;47.748;8.960;2023-01-29T07:01:10;97821.72;;;2.91;60.16
3150;BME280;32503;47.748;8.960;2023-01-29T07:03:38;97815.81;;;2.94;60.40
3150;BME280;32503;47.748;8.960;2023-01-29T07:06:06;97769.78;;;3.02;65.99
3150;BME280;32503;47.748;8.960;2023-01-29T07:08:35;97829.97;;;3.24;61.79
3150;BME280;32503;47.748;8.960;2023-01-29T07:11:03;97831.09;;;3.18;60.06
3150;BME280;32503;47.748;8.960;2023-01-29T07:13:31;97832.69;;;3.19;60.07
3150;BME280;32503;47.748;8.960;2023-01-29T07:15:59;97823.09;;;3.18;59.99
3150;BME280;32503;47.748;8.960;2023-01-29T07:18:26;97804.00;;;3.00;59.51
3150;BME280;32503;47.748;8.960;2023-01-29T07:20:55;97830.88;;;3.14;59.45
3150;BME280;32503;47.748;8.960;2023-01-29T07:23:23;97835.41;;;3.14;59.13
3150;BME280;32503;47.748;8.960;2023-01-29T07:25:50;97833.59;;;3.09;58.92
3150;BME280;32503;47.748;8.960;2023-01-29T07:28:18;97824.09;;;2.93;58.77
3150;BME280;32503;47.748;8.960;2023-01-29T07:30:46;97833.13;;;3.02;58.46
3150;BME280;32503;47.748;8.960;2023-01-29T07:33:13;97835.25;;;3.00;58.65
3150;BME280;32503;47.748;8.960;2023-01-29T07:35:41;97841.91;;;3.02;58.91
3150;BME280;32503;47.748;8.960;2023-01-29T07:38:10;97841.63;;;3.04;59.14
3150;BME280;32503;47.748;8.960;2023-01-29T07:40:38;97849.38;;;3.06;59.05
3150;BME280;32503;47.748;8.960;2023-01-29T07:43:07;97823.03;;;2.94;59.30
3150;BME280;32503;47.748;8.960;2023-01-29T07:45:36;97853.03;;;3.15;58.74
3150;BME280;32503;47.748;8.960;2023-01-29T07:48:05;97853.59;;;3.12;59.06
3150;BME280;32503;47.748;8.960;2023-01-29T07:50:34;97860.22;;;3.19;58.91
3150;BME280;32503;47.748;8.960;2023-01-29T07:53:01;97850.53;;;3.23;58.90
3150;BME280;32503;47.748;8.960;2023-01-29T07:55:29;97854.59;;;3.16;58.90
3150;BME280;32503;47.748;8.960;2023-01-29T07:57:58;97812.09;;;2.90;58.59
3150;BME280;32503;47.748;8.960;2023-01-29T08:00:26;97835.84;;;3.21;60.77
3150;BME280;32503;47.748;8.960;2023-01-29T08:02:56;97845.66;;;3.31;60.66
3150;BME280;32503;47.748;8.960;2023-01-29T08:05:27;97845.91;;;3.34;59.97
3150;BME280;32503;47.748;8.960;2023-01-29T08:07:54;97852.84;;;3.35;57.80
3150;BME280;32503;47.748;8.960;2023-01-29T08:10:21;97852.91;;;3.30;57.25
3150;BME280;32503;47.748;8.960;2023-01-29T08:12:55;97851.56;;;3.28;57.50
3150;BME280;32503;47.748;8.960;2023-01-29T08:15:22;97851.34;;;3.24;56.44
3150;BME280;32503;47.748;8.960;2023-01-29T08:17:50;97824.78;;;3.03;57.13
3150;BME280;32503;47.748;8.960;2023-01-29T08:20:18;97857.19;;;3.26;56.94
3150;BME280;32503;47.748;8.960;2023-01-29T08:22:45;97852.91;;;3.30;57.46
3150;BME280;32503;47.748;8.960;2023-01-29T08:25:13;97850.22;;;3.30;57.21
3150;BME280;32503;47.748;8.960;2023-01-29T08:27:41;97846.47;;;3.31;57.21
3150;BME280;32503;47.748;8.960;2023-01-29T08:30:11;97850.19;;;3.35;57.14
3150;BME280;32503;47.748;8.960;2023-01-29T08:32:38;97845.91;;;3.34;56.96
3150;BME280;32503;47.748;8.960;2023-01-29T08:35:05;97856.03;;;3.37;56.73
3150;BME280;32503;47.748;8.960;2023-01-29T08:37:33;97846.19;;;3.33;57.22
3150;BME280;32503;47.748;8.960;2023-01-29T08:40:00;97856.50;;;3.45;56.89
3150;BME280;32503;47.748;8.960;2023-01-29T08:42:27;97851.16;;;3.45;57.02
3150;BME280;32503;47.748;8.960;2023-01-29T08:44:54;97860.19;;;3.49;56.93
3150;BME280;32503;47.748;8.960;2023-01-29T08:47:22;97858.06;;;3.46;56.60
3150;BME280;32503;47.748;8.960;2023-01-29T08:49:49;97859.13;;;3.50;56.52
3150;BME280;32503;47.748;8.960;2023-01-29T08:52:16;97860.75;;;3.46;56.50
3150;BME280;32503;47.748;8.960;2023-01-29T08:54:43;97868.44;;;3.52;56.38
3150;BME280;32503;47.748;8.960;2023-01-29T08:57:10;97853.19;;;3.53;56.17
3150;BME280;32503;47.748;8.960;2023-01-29T08:59:37;97853.41;;;3.56;56.18
3150;BME280;32503;47.748;8.960;2023-01-29T09:02:04;97872.84;;;3.67;56.25
3150;BME280;32503;47.748;8.960;2023-01-29T09:04:33;97867.50;;;3.67;56.12
3150;BME280;32503;47.748;8.960;2023-01-29T09:07:00;97868.06;;;3.64;56.05
3150;BME280;32503;47.748;8.960;2023-01-29T09:09:27;97871.25;;;3.66;56.46
3150;BME280;32503;47.748;8.960;2023-01-29T09:11:54;97872.31;;;3.65;56.38
3150;BME280;32503;47.748;8.960;2023-01-29T09:14:21;97875.22;;;3.69;55.96
3150;BME280;32503;47.748;8.960;2023-01-29T09:16:48;97881.38;;;3.69;56.16
3150;BME280;32503;47.748;8.960;2023-01-29T09:19:15;97891.41;;;4.26;63.49
3150;BME280;32503;47.748;8.960;2023-01-29T09:21:43;97895.16;;;4.25;62.23
3150;BME280;32503;47.748;8.960;2023-01-29T09:24:10;97884.81;;;4.18;59.61
3150;BME280;32503;47.748;8.960;2023-01-29T09:26:37;97884.72;;;4.04;57.14
3150;BME280;32503;47.748;8.960;2023-01-29T09:29:05;97892.06;;;3.93;56.56
3150;BME280;32503;47.748;8.960;2023-01-29T09:31:32;97874.31;;;3.78;56.05
3150;BME280;32503;47.748;8.960;2023-01-29T09:33:59;97890.53;;;3.87;56.37
3150;BME280;32503;47.748;8.960;2023-01-29T09:36:26;97878.81;;;3.83;56.08
3150;BME280;32503;47.748;8.960;2023-01-29T09:38:54;97886.03;;;3.83;55.90
3150;BME280;32503;47.748;8.960;2023-01-29T09:41:41;97888.47;;;3.79;56.04
3150;BME280;32503;47.748;8.960;2023-01-29T09:44:16;97896.00;;;3.77;56.02
3150;BME280;32503;47.748;8.960;2023-01-29T09:46:49;97892.53;;;3.76;55.92
3150;BME280;32503;47.748;8.960;2023-01-29T09:49:23;97899.69;;;3.81;55.86
3150;BME280;32503;47.748;8.960;2023-01-29T09:51:55;97887.78;;;3.68;55.39
3150;BME280;32503;47.748;8.960;2023-01-29T09:54:30;97875.06;;;3.60;55.41
3150;BME280;32503;47.748;8.960;2023-01-29T09:57:00;97909.09;;;3.78;55.14
3150;BME280;32503;47.748;8.960;2023-01-29T09:59:30;97912.00;;;3.82;54.85
3150;BME280;32503;47.748;8.960;2023-01-29T10:02:08;97916.56;;;3.82;55.20
3150;BME280;32503;47.748;8.960;2023-01-29T10:05:00;97908.53;;;3.82;55.20
3150;BME280;32503;47.748;8.960;2023-01-29T10:08:18;97916.56;;;3.82;55.58
3150;BME280;32503;47.748;8.960;2023-01-29T10:10:52;97912.84;;;3.77;54.86
3150;BME280;32503;47.748;8.960;2023-01-29T10:13:36;97917.34;;;3.82;54.73
3150;BME280;32503;47.748;8.960;2023-01-29T10:16:31;97916.56;;;3.82;54.81
3150;BME280;32503;47.748;8.960;2023-01-29T10:19:30;97917.06;;;3.84;54.83
3150;BME280;32503;47.748;8.960;2023-01-29T10:22:22;97909.66;;;3.75;55.05
3150;BME280;32503;47.748;8.960;2023-01-29T10:24:59;97923.44;;;3.88;54.95
3150;BME280;32503;47.748;8.960;2023-01-29T10:27:33;97913.28;;;3.85;54.73
3150;BME280;32503;47.748;8.960;2023-01-29T10:30:03;97906.91;;;3.80;55.01
3150;BME280;32503;47.748;8.960;2023-01-29T10:32:35;97909.09;;;3.78;55.13
3150;BME280;32503;47.748;8.960;2023-01-29T10:35:11;97908.25;;;3.83;55.29
3150;BME280;32503;47.748;8.960;2023-01-29T10:37:41;97913.00;;;3.86;54.83
3150;BME280;32503;47.748;8.960;2023-01-29T10:40:20;97880.56;;;3.69;55.29
3150;BME280;32503;47.748;8.960;2023-01-29T10:42:57;97909.50;;;3.91;55.16
3150;BME280;32503;47.748;8.960;2023-01-29T10:45:33;97906.31;;;3.89;54.88
3150;BME280;32503;47.748;8.960;2023-01-29T10:48:36;97897.19;;;3.90;55.21
3150;BME280;32503;47.748;8.960;2023-01-29T10:51:18;97887.00;;;3.92;55.26
3150;BME280;32503;47.748;8.960;2023-01-29T10:54:00;97895.03;;;3.92;55.16
3150;BME280;32503;47.748;8.960;2023-01-29T10:56:45;97889.91;;;3.95;55.43
3150;BME280;32503;47.748;8.960;2023-01-29T10:59:37;97900.25;;;4.02;55.28
3150;BME280;32503;47.748;8.960;2023-01-29T11:02:15;97866.75;;;3.86;54.68
3150;BME280;32503;47.748;8.960;2023-01-29T11:04:44;97897.00;;;4.05;54.85
3150;BME280;32503;47.748;8.960;2023-01-29T11:07:12;97890.09;;;4.04;54.82
3150;BME280;32503;47.748;8.960;2023-01-29T11:09:45;97883.63;;;4.05;54.45
3150;BME280;32503;47.748;8.960;2023-01-29T11:12:19;97858.03;;;3.99;54.19
3150;BME280;32503;47.748;8.960;2023-01-29T11:14:55;97861.94;;;4.07;54.11
3150;BME280;32503;47.748;8.960;2023-01-29T11:17:25;97864.22;;;4.18;54.27
3150;BME280;32503;47.748;8.960;2023-01-29T11:19:54;97858.03;;;4.18;53.87
3150;BME280;32503;47.748;8.960;2023-01-29T11:22:23;97856.63;;;4.26;54.47
3150;BME280;32503;47.748;8.960;2023-01-29T11:25:14;97861.69;;;4.27;53.49
3150;BME280;32503;47.748;8.960;2023-01-29T11:27:44;97852.28;;;4.30;53.41
3150;BME280;32503;47.748;8.960;2023-01-29T11:30:21;97865.31;;;4.36;53.67
3150;BME280;32503;47.748;8.960;2023-01-29T11:32:55;97852.91;;;4.41;53.50
3150;BME280;32503;47.748;8.960;2023-01-29T11:35:24;97853.13;;;4.44;53.40
3150;BME280;32503;47.748;8.960;2023-01-29T11:37:52;97846.72;;;4.45;53.62
3150;BME280;32503;47.748;8.960;2023-01-29T11:40:36;97830.28;;;4.33;52.88
3150;BME280;32503;47.748;8.960;2023-01-29T11:43:27;97851.03;;;4.41;53.13
3150;BME280;32503;47.748;8.960;2023-01-29T11:45:59;97848.88;;;4.43;53.10
3150;BME280;32503;47.748;8.960;2023-01-29T11:48:38;97854.25;;;4.43;53.43
3150;BME280;32503;47.748;8.960;2023-01-29T11:51:09;97834.03;;;4.32;53.10
3150;BME280;32503;47.748;8.960;2023-01-29T11:53:39;97848.28;;;4.46;53.17
3150;BME280;32503;47.748;8.960;2023-01-29T11:56:20;97840.19;;;4.51;53.67
3150;BME280;32503;47.748;8.960;2023-01-29T11:58:49;97843.88;;;4.55;52.86
3150;BME280;32503;47.748;8.960;2023-01-29T12:01:29;97836.34;;;4.58;52.94
3150;BME280;32503;47.748;8.960;2023-01-29T12:03:59;97837.50;;;4.51;52.37
3150;BME280;32503;47.748;8.960;2023-01-29T12:06:33;97841.00;;;4.33;52.02
3150;BME280;32503;47.748;8.960;2023-01-29T12:09:08;97852.19;;;4.35;52.19
3150;BME280;32503;47.748;8.960;2023-01-29T12:11:37;97840.31;;;4.41;52.72
3150;BME280;32503;47.748;8.960;2023-01-29T12:14:22;97841.84;;;4.47;52.90
3150;BME280;32503;47.748;8.960;2023-01-29T12:16:55;97834.41;;;4.44;53.18
3150;BME280;32503;47.748;8.960;2023-01-29T12:19:30;97806.97;;;4.33;53.06
3150;BME280;32503;47.748;8.960;2023-01-29T12:22:04;97837.34;;;4.62;52.75
3150;BME280;32503;47.748;8.960;2023-01-29T12:24:37;97842.63;;;4.67;52.91
3150;BME280;32503;47.748;8.960;2023-01-29T12:27:13;97832.91;;;4.71;52.57
3150;BME280;32503;47.748;8.960;2023-01-29T12:29:45;97788.59;;;4.46;52.80
3150;BME280;32503;47.748;8.960;2023-01-29T12:32:28;97781.25;;;4.51;52.97
3150;BME280;32503;47.748;8.960;2023-01-29T12:35:02;97829.00;;;4.82;53.00
3150;BME280;32503;47.748;8.960;2023-01-29T12:37:39;97830.59;;;4.83;52.90
3150;BME280;32503;47.748;8.960;2023-01-29T12:40:13;97825.22;;;4.83;52.68
3150;BME280;32503;47.748;8.960;2023-01-29T12:42:45;97822.63;;;4.78;52.88
3150;BME280;32503;47.748;8.960;2023-01-29T12:45:17;97820.47;;;4.80;52.62
3150;BME280;32503;47.748;8.960;2023-01-29T12:47:48;97802.38;;;4.72;52.15
3150;BME280;32503;47.748;8.960;2023-01-29T12:50:21;97814.91;;;4.77;52.26
3150;BME280;32503;47.748;8.960;2023-01-29T12:52:52;97815.69;;;4.77;52.18
3150;BME280;32503;47.748;8.960;2023-01-29T12:55:25;97813.00;;;4.77;52.20
3150;BME280;32503;47.748;8.960;2023-01-29T12:57:56;97802.94;;;4.69;52.63
3150;BME280;32503;47.748;8.960;2023-01-29T13:00:28;97787.56;;;4.61;52.60
3150;BME280;32503;47.748;8.960;2023-01-29T13:03:03;97799.19;;;4.70;52.55
3150;BME280;32503;47.748;8.960;2023-01-29T13:05:38;97791.81;;;4.62;52.54
3150;BME280;32503;47.748;8.960;2023-01-29T13:08:10;97767.31;;;4.35;52.67
3150;BME280;32503;47.748;8.960;2023-01-29T13:10:42;97760.59;;;4.38;52.70
3150;BME280;32503;47.748;8.960;2023-01-29T13:13:15;97762.09;;;4.44;52.72
3150;BME280;32503;47.748;8.960;2023-01-29T13:15:46;97781.09;;;4.62;53.01
3150;BME280;32503;47.748;8.960;2023-01-29T13:18:36;97766.31;;;4.50;52.63
3150;BME280;32503;47.748;8.960;2023-01-29T13:21:12;97775.53;;;4.58;52.76
3150;BME280;32503;47.748;8.960;2023-01-29T13:23:44;97778.63;;;4.65;52.82
3150;BME280;32503;47.748;8.960;2023-01-29T13:26:17;97760.34;;;4.53;52.62
3150;BME280;32503;47.748;8.960;2023-01-29T13:28:45;97775.97;;;4.65;52.92
3150;BME280;32503;47.748;8.960;2023-01-29T13:31:30;97755.50;;;4.55;52.57
3150;BME280;32503;47.748;8.960;2023-01-29T13:34:12;97774.59;;;4.68;52.75
3150;BME280;32503;47.748;8.960;2023-01-29T13:36:42;97755.50;;;4.55;52.83
3150;BME280;32503;47.748;8.960;2023-01-29T13:39:21;97707.63;;;4.35;52.65
3150;BME280;32503;47.748;8.960;2023-01-29T13:41:51;97759.53;;;4.72;52.84
3150;BME280;32503;47.748;8.960;2023-01-29T13:44:22;97759.94;;;4.79;52.51
3150;BME280;32503;47.748;8.960;2023-01-29T13:46:57;97756.66;;;4.82;52.20
3150;BME280;32503;47.748;8.960;2023-01-29T13:49:34;97752.38;;;4.81;51.86
3150;BME280;32503;47.748;8.960;2023-01-29T13:52:26;97743.06;;;4.79;51.58
3150;BME280;32503;47.748;8.960;2023-01-29T13:54:58;97728.03;;;4.64;51.61
3150;BME280;32503;47.748;8.960;2023-01-29T13:57:48;97743.25;;;4.68;51.74